sensor_id;sensor_type;location;lat;lon;timestamp;pressure;altitude;pressure_sealevel;temperature;humidity
42519;BME280;28147;47.520;18.920;2023-02-13T00:01:38;100490.28;;;3.89;58.72
42519;BME280;28147;47.520;18.920;2023-02-13T00:04:04;100493.34;;;3.85;58.96
42519;BME280;28147;47.520;18.920;2023-02-13T00:06:29;100501.66;;;4.00;58.38
42519;BME280;28147;47.520;18.920;2023-02-13T00:08:55;100494.03;;;3.97;58.57
42519;BME280;28147;47.520;18.920;2023-02-13T00:11:20;100488.78;;;4.06;58.00
42519;BME280;28147;47.520;18.920;2023-02-13T00:13:46;100496.13;;;4.03;57.65
42519;BME280;28147;47.520;18.920;2023-02-13T00:16:11;100504.47;;;3.98;57.95
42519;BME280;28147;47.520;18.920;2023-02-13T00:18:37;100512.78;;;4.13;57.45
42519;BME280;28147;47.520;18.920;2023-02-13T00:21:08;100515.00;;;4.18;57.36
42519;BME280;28147;47.520;18.920;2023-02-13T00:23:36;100515.13;;;4.06;57.08
42519;BME280;28147;47.520;18.920;2023-02-13T00:26:06;100514.28;;;4.25;56.78
42519;BME280;28147;47.520;18.920;2023-02-13T00:28:31;100509.97;;;4.05;57.01
42519;BME280;28147;47.520;18.920;2023-02-13T00:31:09;100512.50;;;4.06;56.83
42519;BME280;28147;47.520;18.920;2023-02-13T00:33:36;100512.50;;;4.06;57.13
42519;BME280;28147;47.520;18.920;2023-02-13T00:36:06;100511.66;;;4.15;56.61
42519;BME280;28147;47.520;18.920;2023-02-13T00:38:32;100521.66;;;4.02;57.09
42519;BME280;28147;47.520;18.920;2023-02-13T00:40:58;100514.00;;;4.09;56.56
42519;BME280;28147;47.520;18.920;2023-02-13T00:43:23;100507.47;;;3.94;56.85
42519;BME280;28147;47.520;18.920;2023-02-13T00:45:49;100518.03;;;3.84;57.17
42519;BME280;28147;47.520;18.920;2023-02-13T00:48:14;100512.78;;;4.03;56.68
42519;BME280;28147;47.520;18.920;2023-02-13T00:50:39;100508.47;;;4.02;56.77
42519;BME280;28147;47.520;18.920;2023-02-13T00:53:05;100506.81;;;4.21;55.63
42519;BME280;28147;47.520;18.920;2023-02-13T00:55:31;100509.56;;;4.00;56.44
42519;BME280;28147;47.520;18.920;2023-02-13T00:57:58;100499.03;;;3.80;56.65
42519;BME280;28147;47.520;18.920;2023-02-13T01:00:23;100493.91;;;3.98;56.28
42519;BME280;28147;47.520;18.920;2023-02-13T01:02:48;100501.13;;;3.96;56.39
42519;BME280;28147;47.520;18.920;2023-02-13T01:05:14;100493.63;;;3.92;56.40
42519;BME280;28147;47.520;18.920;2023-02-13T01:07:39;100489.75;;;3.76;57.15
42519;BME280;28147;47.520;18.920;2023-02-13T01:10:05;100494.19;;;3.76;56.88
42519;BME280;28147;47.520;18.920;2023-02-13T01:12:31;100493.63;;;3.92;56.40
42519;BME280;28147;47.520;18.920;2023-02-13T01:14:56;100496.13;;;3.74;56.86
42519;BME280;28147;47.520;18.920;2023-02-13T01:17:22;100487.78;;;3.59;57.33
42519;BME280;28147;47.520;18.920;2023-02-13T01:19:47;100485.31;;;3.77;56.40
42519;BME280;28147;47.520;18.920;2023-02-13T01:22:13;100489.16;;;3.63;57.13
42519;BME280;28147;47.520;18.920;2023-02-13T01:24:38;100479.59;;;3.62;56.54
42519;BME280;28147;47.520;18.920;2023-02-13T01:27:04;100481.16;;;3.64;56.66
42519;BME280;28147;47.520;18.920;2023-02-13T01:29:29;100479.63;;;3.72;56.95
42519;BME280;28147;47.520;18.920;2023-02-13T01:31:54;100483.66;;;3.76;56.43
42519;BME280;28147;47.520;18.920;2023-02-13T01:34:20;100476.56;;;3.66;56.58
42519;BME280;28147;47.520;18.920;2023-02-13T01:36:45;100477.81;;;3.62;56.79
42519;BME280;28147;47.520;18.920;2023-02-13T01:39:11;100478.63;;;3.63;56.99
42519;BME280;28147;47.520;18.920;2023-02-13T01:41:37;100478.09;;;3.69;56.75
42519;BME280;28147;47.520;18.920;2023-02-13T01:44:43;100473.66;;;3.79;56.31
42519;BME280;28147;47.520;18.920;2023-02-13T01:46:48;100470.88;;;3.71;56.65
42519;BME280;28147;47.520;18.920;2023-02-13T01:49:17;100477.13;;;3.99;55.94
42519;BME280;28147;47.520;18.920;2023-02-13T01:51:46;100483.63;;;4.05;55.60
42519;BME280;28147;47.520;18.920;2023-02-13T01:54:21;100471.84;;;4.28;54.67
42519;BME280;28147;47.520;18.920;2023-02-13T01:56:50;100476.41;;;3.97;55.84
42519;BME280;28147;47.520;18.920;2023-02-13T01:59:19;100468.41;;;3.79;56.40
42519;BME280;28147;47.520;18.920;2023-02-13T02:01:46;100472.81;;;3.69;56.67
42519;BME280;28147;47.520;18.920;2023-02-13T02:04:19;100471.03;;;3.99;55.87
42519;BME280;28147;47.520;18.920;2023-02-13T02:06:52;100462.72;;;3.84;56.13
42519;BME280;28147;47.520;18.920;2023-02-13T02:09:22;100462.84;;;4.02;55.85
42519;BME280;28147;47.520;18.920;2023-02-13T02:12:17;100465.31;;;3.94;55.99
42519;BME280;28147;47.520;18.920;2023-02-13T02:14:47;100463.25;;;4.07;55.22
42519;BME280;28147;47.520;18.920;2023-02-13T02:17:13;100459.81;;;3.87;55.76
42519;BME280;28147;47.520;18.920;2023-02-13T02:49:37;100456.28;;;3.19;58.46
42519;BME280;28147;47.520;18.920;2023-02-13T02:52:28;100456.94;;;3.11;58.65
42519;BME280;28147;47.520;18.920;2023-02-13T03:00:42;100453.03;;;3.05;58.53
42519;BME280;28147;47.520;18.920;2023-02-13T03:03:23;100451.78;;;3.00;58.46
42519;BME280;28147;47.520;18.920;2023-02-13T03:06:01;100457.75;;;3.02;58.68
42519;BME280;28147;47.520;18.920;2023-02-13T03:08:39;100457.00;;;2.90;59.27
42519;BME280;28147;47.520;18.920;2023-02-13T03:11:34;100455.63;;;2.86;59.15
42519;BME280;28147;47.520;18.920;2023-02-13T03:14:23;100456.84;;;2.82;59.87
42519;BME280;28147;47.520;18.920;2023-02-13T03:16:51;100466.72;;;2.59;60.38
42519;BME280;28147;47.520;18.920;2023-02-13T03:41:45;100457.59;;;2.63;60.84
42519;BME280;28147;47.520;18.920;2023-02-13T03:44:17;100457.28;;;2.87;60.11
42519;BME280;28147;47.520;18.920;2023-02-13T03:46:47;100454.44;;;2.69;60.79
42519;BME280;28147;47.520;18.920;2023-02-13T03:51:58;100443.94;;;2.69;60.78
42519;BME280;28147;47.520;18.920;2023-02-13T03:57:22;100442.97;;;2.70;60.50
42519;BME280;28147;47.520;18.920;2023-02-13T04:00:02;100446.94;;;2.64;60.73
42519;BME280;28147;47.520;18.920;2023-02-13T04:02:32;100438.69;;;2.69;60.76
42519;BME280;28147;47.520;18.920;2023-02-13T04:07:41;100437.22;;;2.55;60.86
42519;BME280;28147;47.520;18.920;2023-02-13T04:15:33;100441.56;;;2.66;60.92
42519;BME280;28147;47.520;18.920;2023-02-13T04:20:38;100453.50;;;2.49;61.58
42519;BME280;28147;47.520;18.920;2023-02-13T04:23:06;100448.31;;;2.59;61.29
42519;BME280;28147;47.520;18.920;2023-02-13T04:25:33;100436.50;;;2.53;61.15
42519;BME280;28147;47.520;18.920;2023-02-13T04:27:59;100449.03;;;2.40;61.39
42519;BME280;28147;47.520;18.920;2023-02-13T04:30:24;100452.56;;;2.50;61.36
42519;BME280;28147;47.520;18.920;2023-02-13T04:32:49;100434.63;;;2.65;60.99
42519;BME280;28147;47.520;18.920;2023-02-13T04:35:17;100431.06;;;2.45;61.06
42519;BME280;28147;47.520;18.920;2023-02-13T04:37:42;100436.41;;;2.34;61.41
42519;BME280;28147;47.520;18.920;2023-02-13T04:42:42;100424.97;;;2.14;61.83
42519;BME280;28147;47.520;18.920;2023-02-13T04:45:08;100435.53;;;2.24;61.71
42519;BME280;28147;47.520;18.920;2023-02-13T04:47:35;100429.25;;;2.15;61.72
42519;BME280;28147;47.520;18.920;2023-02-13T04:50:00;100427.72;;;2.12;61.97
42519;BME280;28147;47.520;18.920;2023-02-13T04:52:25;100432.34;;;2.20;61.75
42519;BME280;28147;47.520;18.920;2023-02-13T04:54:51;100433.09;;;2.32;61.41
42519;BME280;28147;47.520;18.920;2023-02-13T04:57:16;100434.19;;;2.29;61.48
42519;BME280;28147;47.520;18.920;2023-02-13T04:59:42;100431.75;;;2.16;61.98
42519;BME280;28147;47.520;18.920;2023-02-13T05:02:07;100424.78;;;2.06;62.34
42519;BME280;28147;47.520;18.920;2023-02-13T05:04:33;100422.84;;;2.08;62.50
42519;BME280;28147;47.520;18.920;2023-02-13T05:06:58;100429.81;;;2.18;62.07
42519;BME280;28147;47.520;18.920;2023-02-13T05:09:23;100423.75;;;2.18;62.03
42519;BME280;28147;47.520;18.920;2023-02-13T05:14:26;100428.84;;;2.19;61.22
42519;BME280;28147;47.520;18.920;2023-02-13T05:17:13;100428.44;;;1.93;62.08
42519;BME280;28147;47.520;18.920;2023-02-13T05:19:39;100413.31;;;1.86;62.02
42519;BME280;28147;47.520;18.920;2023-02-13T05:22:04;100419.78;;;2.03;61.99
42519;BME280;28147;47.520;18.920;2023-02-13T05:27:18;100412.34;;;1.87;62.46
42519;BME280;28147;47.520;18.920;2023-02-13T05:29:44;100423.13;;;2.05;61.91
42519;BME280;28147;47.520;18.920;2023-02-13T05:33:07;100422.59;;;2.11;61.91
42519;BME280;28147;47.520;18.920;2023-02-13T05:36:19;100428.31;;;1.95;62.19
42519;BME280;28147;47.520;18.920;2023-02-13T05:38:44;100412.03;;;2.01;61.93
42519;BME280;28147;47.520;18.920;2023-02-13T05:51:15;100431.22;;;1.60;63.33
42519;BME280;28147;47.520;18.920;2023-02-13T05:53:41;100421.06;;;1.55;63.39
42519;BME280;28147;47.520;18.920;2023-02-13T05:58:58;100424.88;;;1.62;63.71
42519;BME280;28147;47.520;18.920;2023-02-13T06:01:24;100431.38;;;1.79;62.91
42519;BME280;28147;47.520;18.920;2023-02-13T06:03:49;100433.47;;;1.64;63.57
42519;BME280;28147;47.520;18.920;2023-02-13T06:06:15;100432.19;;;1.80;63.06
42519;BME280;28147;47.520;18.920;2023-02-13T06:19:19;100450.91;;;1.86;63.34
42519;BME280;28147;47.520;18.920;2023-02-13T06:35:19;100465.84;;;2.28;62.95
42519;BME280;28147;47.520;18.920;2023-02-13T06:40:41;100465.22;;;2.35;63.08
42519;BME280;28147;47.520;18.920;2023-02-13T06:44:06;100466.97;;;2.35;63.33
42519;BME280;28147;47.520;18.920;2023-02-13T06:46:32;100461.03;;;2.33;62.79
42519;BME280;28147;47.520;18.920;2023-02-13T06:52:33;100465.00;;;2.79;62.03
42519;BME280;28147;47.520;18.920;2023-02-13T06:55:00;100462.19;;;2.71;62.25
42519;BME280;28147;47.520;18.920;2023-02-13T06:57:25;100469.16;;;2.81;62.67
42519;BME280;28147;47.520;18.920;2023-02-13T06:59:51;100460.13;;;2.74;62.68
42519;BME280;28147;47.520;18.920;2023-02-13T07:02:16;100470.25;;;2.79;63.06
42519;BME280;28147;47.520;18.920;2023-02-13T07:04:42;100464.72;;;2.82;63.38
42519;BME280;28147;47.520;18.920;2023-02-13T07:07:07;100468.25;;;2.92;63.06
42519;BME280;28147;47.520;18.920;2023-02-13T07:09:33;100472.44;;;2.43;64.81
42519;BME280;28147;47.520;18.920;2023-02-13T07:12:02;100467.28;;;2.62;65.05
42519;BME280;28147;47.520;18.920;2023-02-13T07:14:27;100467.78;;;2.77;64.17
42519;BME280;28147;47.520;18.920;2023-02-13T07:16:53;100467.78;;;3.37;62.61
42519;BME280;28147;47.520;18.920;2023-02-13T07:19:18;100467.00;;;3.65;61.81
42519;BME280;28147;47.520;18.920;2023-02-13T07:21:44;100463.94;;;3.70;62.01
42519;BME280;28147;47.520;18.920;2023-02-13T07:24:09;100476.16;;;3.81;61.55
42519;BME280;28147;47.520;18.920;2023-02-13T07:26:35;100472.53;;;3.82;61.09
42519;BME280;28147;47.520;18.920;2023-02-13T07:29:00;100475.03;;;4.32;60.11
42519;BME280;28147;47.520;18.920;2023-02-13T07:34:04;100468.53;;;5.01;58.71
42519;BME280;28147;47.520;18.920;2023-02-13T07:36:30;100473.63;;;5.30;57.82
42519;BME280;28147;47.520;18.920;2023-02-13T07:38:55;100476.25;;;5.57;56.65
42519;BME280;28147;47.520;18.920;2023-02-13T07:41:20;100482.03;;;6.06;55.29
42519;BME280;28147;47.520;18.920;2023-02-13T07:43:50;100478.69;;;6.22;55.02
42519;BME280;28147;47.520;18.920;2023-02-13T07:46:15;100482.00;;;6.50;54.66
42519;BME280;28147;47.520;18.920;2023-02-13T07:48:40;100486.63;;;6.74;54.01
42519;BME280;28147;47.520;18.920;2023-02-13T07:51:06;100483.81;;;6.06;54.73
42519;BME280;28147;47.520;18.920;2023-02-13T07:53:31;100486.22;;;6.61;54.65
42519;BME280;28147;47.520;18.920;2023-02-13T07:55:57;100486.94;;;7.05;54.13
42519;BME280;28147;47.520;18.920;2023-02-13T07:58:22;100487.44;;;7.51;53.10
42519;BME280;28147;47.520;18.920;2023-02-13T08:00:47;100487.63;;;6.81;53.05
42519;BME280;28147;47.520;18.920;2023-02-13T08:03:13;100498.13;;;6.39;55.00
42519;BME280;28147;47.520;18.920;2023-02-13T08:05:38;100488.03;;;6.61;55.20
42519;BME280;28147;47.520;18.920;2023-02-13T08:08:05;100487.88;;;6.96;54.48
42519;BME280;28147;47.520;18.920;2023-02-13T08:10:31;100483.38;;;7.31;54.50
42519;BME280;28147;47.520;18.920;2023-02-13T08:13:15;100483.78;;;7.02;53.26
42519;BME280;28147;47.520;18.920;2023-02-13T08:15:41;100490.56;;;7.04;54.58
42519;BME280;28147;47.520;18.920;2023-02-13T08:18:09;100485.38;;;7.29;53.23
42519;BME280;28147;47.520;18.920;2023-02-13T08:20:34;100476.56;;;8.20;50.95
42519;BME280;28147;47.520;18.920;2023-02-13T08:23:09;100475.06;;;7.85;50.97
42519;BME280;28147;47.520;18.920;2023-02-13T08:25:37;100477.22;;;8.14;51.59
42519;BME280;28147;47.520;18.920;2023-02-13T08:28:03;100474.38;;;7.83;51.06
42519;BME280;28147;47.520;18.920;2023-02-13T08:30:28;100468.56;;;7.63;51.53
42519;BME280;28147;47.520;18.920;2023-02-13T08:32:54;100479.88;;;8.05;51.23
42519;BME280;28147;47.520;18.920;2023-02-13T08:35:20;100474.69;;;7.71;52.13
42519;BME280;28147;47.520;18.920;2023-02-13T08:37:46;100467.19;;;8.81;50.70
42519;BME280;28147;47.520;18.920;2023-02-13T08:40:12;100475.00;;;8.74;49.07
42519;BME280;28147;47.520;18.920;2023-02-13T08:42:37;100468.34;;;8.78;49.60
42519;BME280;28147;47.520;18.920;2023-02-13T08:45:03;100475.03;;;9.45;48.08
42519;BME280;28147;47.520;18.920;2023-02-13T08:47:30;100464.22;;;9.15;48.05
42519;BME280;28147;47.520;18.920;2023-02-13T08:49:55;100457.66;;;7.90;50.64
42519;BME280;28147;47.520;18.920;2023-02-13T08:52:21;100471.53;;;8.66;49.40
42519;BME280;28147;47.520;18.920;2023-02-13T08:54:46;100475.81;;;8.75;49.04
42519;BME280;28147;47.520;18.920;2023-02-13T08:57:11;100474.50;;;8.79;49.40
42519;BME280;28147;47.520;18.920;2023-02-13T08:59:37;100476.88;;;8.09;50.31
42519;BME280;28147;47.520;18.920;2023-02-13T09:02:02;100469.50;;;8.84;48.78
42519;BME280;28147;47.520;18.920;2023-02-13T09:04:28;100476.97;;;9.20;47.39
42519;BME280;28147;47.520;18.920;2023-02-13T09:06:54;100471.97;;;8.86;48.65
42519;BME280;28147;47.520;18.920;2023-02-13T09:09:19;100462.81;;;8.96;48.42
42519;BME280;28147;47.520;18.920;2023-02-13T09:11:45;100474.41;;;8.40;48.70
42519;BME280;28147;47.520;18.920;2023-02-13T09:14:10;100469.94;;;8.08;49.10
42519;BME280;28147;47.520;18.920;2023-02-13T09:16:36;100477.81;;;9.20;47.89
42519;BME280;28147;47.520;18.920;2023-02-13T09:19:01;100466.34;;;9.28;47.98
42519;BME280;28147;47.520;18.920;2023-02-13T09:21:28;100476.19;;;8.56;48.21
42519;BME280;28147;47.520;18.920;2023-02-13T09:23:55;100470.50;;;9.22;46.92
42519;BME280;28147;47.520;18.920;2023-02-13T09:26:21;100474.41;;;9.04;47.78
42519;BME280;28147;47.520;18.920;2023-02-13T09:28:46;100479.59;;;8.89;47.80
42519;BME280;28147;47.520;18.920;2023-02-13T09:31:17;100481.81;;;9.24;46.76
42519;BME280;28147;47.520;18.920;2023-02-13T09:33:44;100478.84;;;10.19;45.23
42519;BME280;28147;47.520;18.920;2023-02-13T09:36:29;100474.16;;;9.53;46.00
42519;BME280;28147;47.520;18.920;2023-02-13T09:38:56;100472.19;;;9.78;45.49
42519;BME280;28147;47.520;18.920;2023-02-13T09:41:25;100469.44;;;10.32;44.47
42519;BME280;28147;47.520;18.920;2023-02-13T09:44:13;100476.22;;;10.72;43.60
42519;BME280;28147;47.520;18.920;2023-02-13T09:47:25;100467.72;;;10.16;44.34
42519;BME280;28147;47.520;18.920;2023-02-13T09:52:43;100470.78;;;12.04;42.40
42519;BME280;28147;47.520;18.920;2023-02-13T09:55:20;100471.91;;;11.37;42.46
42519;BME280;28147;47.520;18.920;2023-02-13T09:57:58;100470.22;;;10.85;42.91
42519;BME280;28147;47.520;18.920;2023-02-13T10:00:39;100462.56;;;10.14;43.86
42519;BME280;28147;47.520;18.920;2023-02-13T10:03:25;100454.06;;;9.73;45.49
42519;BME280;28147;47.520;18.920;2023-02-13T10:16:20;100450.84;;;9.63;45.43
42519;BME280;28147;47.520;18.920;2023-02-13T10:18:54;100454.03;;;9.81;45.47
42519;BME280;28147;47.520;18.920;2023-02-13T10:21:25;100452.94;;;10.51;43.11
42519;BME280;28147;47.520;18.920;2023-02-13T10:24:11;100434.91;;;10.98;43.12
42519;BME280;28147;47.520;18.920;2023-02-13T10:26:40;100447.94;;;11.22;43.33
42519;BME280;28147;47.520;18.920;2023-02-13T10:29:26;100436.41;;;11.94;42.17
42519;BME280;28147;47.520;18.920;2023-02-13T10:32:18;100436.78;;;12.75;41.49
42519;BME280;28147;47.520;18.920;2023-02-13T10:34:46;100441.06;;;13.18;40.86
42519;BME280;28147;47.520;18.920;2023-02-13T10:37:15;100430.13;;;13.54;39.63
42519;BME280;28147;47.520;18.920;2023-02-13T10:39:44;100422.25;;;12.91;40.59
42519;BME280;28147;47.520;18.920;2023-02-13T10:45:26;100419.84;;;13.64;39.02
42519;BME280;28147;47.520;18.920;2023-02-13T10:50:47;100424.78;;;12.64;40.81
42519;BME280;28147;47.520;18.920;2023-02-13T11:01:22;100404.34;;;13.39;39.15
42519;BME280;28147;47.520;18.920;2023-02-13T11:04:03;100400.50;;;13.88;38.49
42519;BME280;28147;47.520;18.920;2023-02-13T11:06:29;100393.06;;;13.97;38.17
42519;BME280;28147;47.520;18.920;2023-02-13T11:08:54;100393.91;;;14.11;38.49
42519;BME280;28147;47.520;18.920;2023-02-13T11:11:37;100394.09;;;13.63;38.35
42519;BME280;28147;47.520;18.920;2023-02-13T11:17:02;100391.56;;;13.28;39.06
42519;BME280;28147;47.520;18.920;2023-02-13T11:22:07;100381.53;;;13.57;38.84
42519;BME280;28147;47.520;18.920;2023-02-13T11:24:33;100386.16;;;13.22;39.37
42519;BME280;28147;47.520;18.920;2023-02-13T11:27:05;100390.41;;;13.57;39.07
42519;BME280;28147;47.520;18.920;2023-02-13T11:29:34;100391.78;;;13.27;38.84
42519;BME280;28147;47.520;18.920;2023-02-13T11:32:27;100379.47;;;13.52;39.01
42519;BME280;28147;47.520;18.920;2023-02-13T11:34:53;100378.47;;;13.73;38.53
42519;BME280;28147;47.520;18.920;2023-02-13T11:37:24;100378.47;;;13.73;38.36
42519;BME280;28147;47.520;18.920;2023-02-13T11:39:53;100367.13;;;13.84;38.21
42519;BME280;28147;47.520;18.920;2023-02-13T11:42:33;100370.44;;;13.80;38.10
42519;BME280;28147;47.520;18.920;2023-02-13T11:45:19;100358.69;;;13.54;38.55
42519;BME280;28147;47.520;18.920;2023-02-13T11:47:45;100354.97;;;13.82;38.42
42519;BME280;28147;47.520;18.920;2023-02-13T11:50:25;100358.47;;;13.62;39.51
42519;BME280;28147;47.520;18.920;2023-02-13T11:55:34;100357.25;;;13.92;38.32
42519;BME280;28147;47.520;18.920;2023-02-13T11:58:22;100356.84;;;13.68;39.18
42519;BME280;28147;47.520;18.920;2023-02-13T12:00:48;100351.72;;;13.86;38.74
42519;BME280;28147;47.520;18.920;2023-02-13T12:08:35;100343.88;;;13.78;39.35
42519;BME280;28147;47.520;18.920;2023-02-13T12:11:03;100352.31;;;13.62;38.80
42519;BME280;28147;47.520;18.920;2023-02-13T12:13:37;100352.72;;;13.72;39.11
42519;BME280;28147;47.520;18.920;2023-02-13T12:16:37;100358.47;;;13.62;39.41
42519;BME280;28147;47.520;18.920;2023-02-13T12:19:09;100351.28;;;13.63;39.52
42519;BME280;28147;47.520;18.920;2023-02-13T12:30:21;100329.00;;;12.20;41.74
42519;BME280;28147;47.520;18.920;2023-02-13T12:35:51;100331.72;;;12.33;42.27
42519;BME280;28147;47.520;18.920;2023-02-13T12:43:46;100320.09;;;11.57;43.68
42519;BME280;28147;47.520;18.920;2023-02-13T12:51:56;100309.13;;;11.95;43.20
42519;BME280;28147;47.520;18.920;2023-02-13T12:54:49;100314.09;;;11.76;43.71
42519;BME280;28147;47.520;18.920;2023-02-13T13:02:46;100294.25;;;10.57;45.31
42519;BME280;28147;47.520;18.920;2023-02-13T13:19:01;100282.53;;;10.87;45.18
42519;BME280;28147;47.520;18.920;2023-02-13T13:27:23;100287.78;;;11.02;45.42
42519;BME280;28147;47.520;18.920;2023-02-13T13:29:54;100289.00;;;11.00;45.24
42519;BME280;28147;47.520;18.920;2023-02-13T13:32:23;100283.75;;;10.70;45.52
42519;BME280;28147;47.520;18.920;2023-02-13T13:34:50;100282.13;;;10.90;45.10
42519;BME280;28147;47.520;18.920;2023-02-13T13:42:58;100292.03;;;10.60;46.40
42519;BME280;28147;47.520;18.920;2023-02-13T13:46:06;100282.97;;;10.55;46.35
42519;BME280;28147;47.520;18.920;2023-02-13T13:51:15;100269.88;;;10.38;47.56
42519;BME280;28147;47.520;18.920;2023-02-13T13:56:29;100279.78;;;10.00;47.88
42519;BME280;28147;47.520;18.920;2023-02-13T14:07:42;100271.41;;;9.88;48.87
42519;BME280;28147;47.520;18.920;2023-02-13T14:13:01;100278.47;;;9.96;48.89
42519;BME280;28147;47.520;18.920;2023-02-13T14:26:19;100293.97;;;9.92;48.84
42519;BME280;28147;47.520;18.920;2023-02-13T14:31:32;100292.94;;;9.26;51.36
42519;BME280;28147;47.520;18.920;2023-02-13T14:34:01;100298.84;;;9.36;51.02
42519;BME280;28147;47.520;18.920;2023-02-13T14:36:34;100295.63;;;9.41;51.16
42519;BME280;28147;47.520;18.920;2023-02-13T14:42:41;100301.13;;;9.39;51.66
42519;BME280;28147;47.520;18.920;2023-02-13T14:45:20;100299.50;;;9.53;51.16
42519;BME280;28147;47.520;18.920;2023-02-13T14:47:51;100305.03;;;9.52;51.35
42519;BME280;28147;47.520;18.920;2023-02-13T14:52:50;100291.56;;;9.30;51.62
42519;BME280;28147;47.520;18.920;2023-02-13T14:55:28;100298.84;;;9.36;51.81
42519;BME280;28147;47.520;18.920;2023-02-13T14:58:05;100289.94;;;9.29;51.70
42519;BME280;28147;47.520;18.920;2023-02-13T15:06:12;100292.13;;;9.02;52.36
42519;BME280;28147;47.520;18.920;2023-02-13T15:08:47;100287.28;;;9.06;52.35
42519;BME280;28147;47.520;18.920;2023-02-13T15:11:35;100281.06;;;8.91;52.73
42519;BME280;28147;47.520;18.920;2023-02-13T15:14:33;100290.50;;;9.16;52.11
42519;BME280;28147;47.520;18.920;2023-02-13T15:17:29;100294.50;;;8.89;52.52
42519;BME280;28147;47.520;18.920;2023-02-13T15:20:20;100294.91;;;8.78;53.48
42519;BME280;28147;47.520;18.920;2023-02-13T15:22:48;100284.22;;;8.86;52.81
42519;BME280;28147;47.520;18.920;2023-02-13T15:27:59;100295.41;;;9.05;52.18
42519;BME280;28147;47.520;18.920;2023-02-13T15:30:29;100293.41;;;9.07;52.19
42519;BME280;28147;47.520;18.920;2023-02-13T15:33:17;100292.06;;;9.11;52.09
42519;BME280;28147;47.520;18.920;2023-02-13T15:35:44;100316.59;;;9.13;52.35
42519;BME280;28147;47.520;18.920;2023-02-13T15:39:33;100293.06;;;9.10;52.02
42519;BME280;28147;47.520;18.920;2023-02-13T15:42:00;100294.84;;;8.94;52.38
42519;BME280;28147;47.520;18.920;2023-02-13T15:44:33;100287.03;;;9.16;51.86
42519;BME280;28147;47.520;18.920;2023-02-13T15:47:31;100282.44;;;9.10;51.94
42519;BME280;28147;47.520;18.920;2023-02-13T15:49:58;100291.78;;;8.97;52.24
42519;BME280;28147;47.520;18.920;2023-02-13T16:01:18;100282.28;;;8.80;52.61
42519;BME280;28147;47.520;18.920;2023-02-13T16:05:57;100282.25;;;8.57;53.50
42519;BME280;28147;47.520;18.920;2023-02-13T16:17:32;100297.97;;;8.19;54.32
42519;BME280;28147;47.520;18.920;2023-02-13T16:26:06;100297.59;;;7.75;55.29
42519;BME280;28147;47.520;18.920;2023-02-13T16:28:36;100287.00;;;7.67;56.01
42519;BME280;28147;47.520;18.920;2023-02-13T16:31:03;100290.31;;;7.77;55.54
42519;BME280;28147;47.520;18.920;2023-02-13T16:33:31;100290.16;;;7.70;55.67
42519;BME280;28147;47.520;18.920;2023-02-13T16:36:44;100289.47;;;7.60;55.79
42519;BME280;28147;47.520;18.920;2023-02-13T16:38:48;100279.88;;;7.67;55.37
42519;BME280;28147;47.520;18.920;2023-02-13T16:57:17;100288.50;;;7.69;56.71
42519;BME280;28147;47.520;18.920;2023-02-13T17:02:12;100286.66;;;7.70;56.52
42519;BME280;28147;47.520;18.920;2023-02-13T17:04:40;100279.66;;;7.93;55.99
42519;BME280;28147;47.520;18.920;2023-02-13T17:07:18;100271.84;;;8.00;55.25
42519;BME280;28147;47.520;18.920;2023-02-13T17:17:22;100263.78;;;7.77;56.28
42519;BME280;28147;47.520;18.920;2023-02-13T17:19:48;100269.31;;;7.51;56.98
42519;BME280;28147;47.520;18.920;2023-02-13T17:22:22;100251.09;;;7.23;57.36
42519;BME280;28147;47.520;18.920;2023-02-13T17:24:50;100244.47;;;7.36;57.14
42519;BME280;28147;47.520;18.920;2023-02-13T17:27:15;100254.91;;;7.21;57.40
42519;BME280;28147;47.520;18.920;2023-02-13T17:30:24;100259.22;;;6.97;58.39
42519;BME280;28147;47.520;18.920;2023-02-13T17:38:35;100256.06;;;7.18;58.05
42519;BME280;28147;47.520;18.920;2023-02-13T17:46:21;100256.41;;;7.40;57.71
42519;BME280;28147;47.520;18.920;2023-02-13T17:49:51;100243.31;;;6.97;59.04
42519;BME280;28147;47.520;18.920;2023-02-13T17:52:21;100237.03;;;6.90;59.36
42519;BME280;28147;47.520;18.920;2023-02-13T17:55:34;100240.31;;;6.92;59.56
42519;BME280;28147;47.520;18.920;2023-02-13T17:59:37;100231.50;;;6.59;60.36
42519;BME280;28147;47.520;18.920;2023-02-13T18:02:03;100231.72;;;6.98;59.57
42519;BME280;28147;47.520;18.920;2023-02-13T18:04:30;100223.63;;;7.24;58.21
42519;BME280;28147;47.520;18.920;2023-02-13T18:06:55;100233.72;;;7.21;57.78
42519;BME280;28147;47.520;18.920;2023-02-13T18:09:22;100234.22;;;7.16;57.94
42519;BME280;28147;47.520;18.920;2023-02-13T18:13:25;100226.69;;;6.46;59.81
42519;BME280;28147;47.520;18.920;2023-02-13T18:15:51;100228.81;;;6.34;60.51
42519;BME280;28147;47.520;18.920;2023-02-13T18:18:16;100218.41;;;6.33;60.26
42519;BME280;28147;47.520;18.920;2023-02-13T18:21:57;100222.53;;;6.44;60.09
42519;BME280;28147;47.520;18.920;2023-02-13T18:27:08;100219.13;;;6.68;59.03
42519;BME280;28147;47.520;18.920;2023-02-13T18:31:12;100209.78;;;6.31;59.74
42519;BME280;28147;47.520;18.920;2023-02-13T18:33:38;100211.81;;;6.37;59.62
42519;BME280;28147;47.520;18.920;2023-02-13T18:36:03;100206.53;;;6.45;59.65
42519;BME280;28147;47.520;18.920;2023-02-13T18:40:01;100200.81;;;6.16;60.16
42519;BME280;28147;47.520;18.920;2023-02-13T18:50:16;100195.19;;;6.11;60.75
42519;BME280;28147;47.520;18.920;2023-02-13T18:52:41;100193.69;;;6.08;60.72
42519;BME280;28147;47.520;18.920;2023-02-13T18:56:17;100187.63;;;5.90;61.65
42519;BME280;28147;47.520;18.920;2023-02-13T18:58:47;100192.16;;;5.71;61.76